sensor_id;sensor_type;location;lat;lon;timestamp;temperature;humidity
21992;DHT22;11160;51.576;0.194;2022-07-17T00:01:28;26.50;57.50
21992;DHT22;11160;51.576;0.194;2022-07-17T00:03:56;26.50;57.50
21992;DHT22;11160;51.576;0.194;2022-07-17T00:06:23;26.40;57.40
21992;DHT22;11160;51.576;0.194;2022-07-17T00:08:52;26.40;57.40
21992;DHT22;11160;51.576;0.194;2022-07-17T00:11:19;26.40;57.50
21992;DHT22;11160;51.576;0.194;2022-07-17T00:13:46;26.40;57.60
21992;DHT22;11160;51.576;0.194;2022-07-17T00:16:14;26.40;57.70
21992;DHT22;11160;51.576;0.194;2022-07-17T00:18:42;26.30;57.70
21992;DHT22;11160;51.576;0.194;2022-07-17T00:21:10;26.30;57.70
21992;DHT22;11160;51.576;0.194;2022-07-17T00:23:37;26.30;57.70
21992;DHT22;11160;51.576;0.194;2022-07-17T00:26:05;26.30;57.70
21992;DHT22;11160;51.576;0.194;2022-07-17T00:28:32;26.30;57.80
21992;DHT22;11160;51.576;0.194;2022-07-17T00:30:59;26.20;57.80
21992;DHT22;11160;51.576;0.194;2022-07-17T00:33:27;26.20;57.80
21992;DHT22;11160;51.576;0.194;2022-07-17T00:35:54;26.20;57.90
21992;DHT22;11160;51.576;0.194;2022-07-17T00:38:22;26.20;57.80
21992;DHT22;11160;51.576;0.194;2022-07-17T00:40:49;26.20;57.90
21992;DHT22;11160;51.576;0.194;2022-07-17T00:43:16;26.10;57.90
21992;DHT22;11160;51.576;0.194;2022-07-17T00:45:44;26.10;58.00
21992;DHT22;11160;51.576;0.194;2022-07-17T00:48:12;26.10;58.00
21992;DHT22;11160;51.576;0.194;2022-07-17T00:50:41;26.00;58.10
21992;DHT22;11160;51.576;0.194;2022-07-17T00:53:09;26.10;58.30
21992;DHT22;11160;51.576;0.194;2022-07-17T00:55:39;26.00;58.20
21992;DHT22;11160;51.576;0.194;2022-07-17T00:58:11;26.00;58.30
21992;DHT22;11160;51.576;0.194;2022-07-17T01:00:39;25.90;58.30
21992;DHT22;11160;51.576;0.194;2022-07-17T01:03:08;25.90;58.30
21992;DHT22;11160;51.576;0.194;2022-07-17T01:05:36;25.90;58.30
21992;DHT22;11160;51.576;0.194;2022-07-17T01:08:04;25.90;58.20
21992;DHT22;11160;51.576;0.194;2022-07-17T01:10:31;25.90;58.30
21992;DHT22;11160;51.576;0.194;2022-07-17T01:12:59;25.90;58.40
21992;DHT22;11160;51.576;0.194;2022-07-17T01:15:27;25.80;58.30
21992;DHT22;11160;51.576;0.194;2022-07-17T01:17:55;25.80;58.30
21992;DHT22;11160;51.576;0.194;2022-07-17T01:20:23;25.80;58.40
21992;DHT22;11160;51.576;0.194;2022-07-17T01:22:51;25.80;58.50
21992;DHT22;11160;51.576;0.194;2022-07-17T01:25:21;25.80;58.50
21992;DHT22;11160;51.576;0.194;2022-07-17T01:27:48;25.70;58.50
21992;DHT22;11160;51.576;0.194;2022-07-17T01:30:16;25.70;58.60
21992;DHT22;11160;51.576;0.194;2022-07-17T01:32:44;25.60;58.60
21992;DHT22;11160;51.576;0.194;2022-07-17T01:35:13;25.70;58.70
21992;DHT22;11160;51.576;0.194;2022-07-17T01:37:42;25.60;58.80
21992;DHT22;11160;51.576;0.194;2022-07-17T01:40:10;25.60;58.80
21992;DHT22;11160;51.576;0.194;2022-07-17T01:42:44;25.60;58.80
21992;DHT22;11160;51.576;0.194;2022-07-17T01:45:12;25.60;58.80
21992;DHT22;11160;51.576;0.194;2022-07-17T01:47:40;25.50;58.90
21992;DHT22;11160;51.576;0.194;2022-07-17T01:50:08;25.50;58.90
21992;DHT22;11160;51.576;0.194;2022-07-17T01:52:38;25.50;59.00
21992;DHT22;11160;51.576;0.194;2022-07-17T01:55:07;25.50;59.00
21992;DHT22;11160;51.576;0.194;2022-07-17T01:57:34;25.40;59.10
21992;DHT22;11160;51.576;0.194;2022-07-17T02:00:05;25.40;59.00
21992;DHT22;11160;51.576;0.194;2022-07-17T02:02:33;25.40;59.10
21992;DHT22;11160;51.576;0.194;2022-07-17T02:05:01;25.40;59.00
21992;DHT22;11160;51.576;0.194;2022-07-17T02:07:28;25.40;59.20
21992;DHT22;11160;51.576;0.194;2022-07-17T02:09:57;25.30;59.20
21992;DHT22;11160;51.576;0.194;2022-07-17T02:12:24;25.30;59.30
21992;DHT22;11160;51.576;0.194;2022-07-17T02:14:51;25.30;59.20
21992;DHT22;11160;51.576;0.194;2022-07-17T02:17:20;25.30;59.20
21992;DHT22;11160;51.576;0.194;2022-07-17T02:19:47;25.30;59.20
21992;DHT22;11160;51.576;0.194;2022-07-17T02:22:14;25.30;59.40
21992;DHT22;11160;51.576;0.194;2022-07-17T02:24:42;25.20;59.40
21992;DHT22;11160;51.576;0.194;2022-07-17T02:27:09;25.20;59.50
21992;DHT22;11160;51.576;0.194;2022-07-17T02:29:36;25.20;59.50
21992;DHT22;11160;51.576;0.194;2022-07-17T02:32:04;25.20;59.50
21992;DHT22;11160;51.576;0.194;2022-07-17T02:34:31;25.10;59.50
21992;DHT22;11160;51.576;0.194;2022-07-17T02:36:59;25.10;59.70
21992;DHT22;11160;51.576;0.194;2022-07-17T02:39:26;25.10;59.70
21992;DHT22;11160;51.576;0.194;2022-07-17T02:41:54;25.10;59.60
21992;DHT22;11160;51.576;0.194;2022-07-17T02:44:21;25.10;59.60
21992;DHT22;11160;51.576;0.194;2022-07-17T02:46:48;25.00;59.70
21992;DHT22;11160;51.576;0.194;2022-07-17T02:49:18;25.10;59.80
21992;DHT22;11160;51.576;0.194;2022-07-17T02:51:45;25.00;59.70
21992;DHT22;11160;51.576;0.194;2022-07-17T02:54:12;25.00;59.80
21992;DHT22;11160;51.576;0.194;2022-07-17T02:56:39;25.00;59.90
21992;DHT22;11160;51.576;0.194;2022-07-17T02:59:07;25.00;59.80
21992;DHT22;11160;51.576;0.194;2022-07-17T03:01:34;24.90;59.90
21992;DHT22;11160;51.576;0.194;2022-07-17T03:04:01;24.90;60.00
21992;DHT22;11160;51.576;0.194;2022-07-17T03:06:28;24.90;60.00
21992;DHT22;11160;51.576;0.194;2022-07-17T03:08:56;24.90;60.10
21992;DHT22;11160;51.576;0.194;2022-07-17T03:11:23;24.80;60.10
21992;DHT22;11160;51.576;0.194;2022-07-17T03:13:50;24.90;60.00
21992;DHT22;11160;51.576;0.194;2022-07-17T03:16:17;24.90;60.20
21992;DHT22;11160;51.576;0.194;2022-07-17T03:18:45;24.80;60.20
21992;DHT22;11160;51.576;0.194;2022-07-17T03:21:12;24.80;60.30
21992;DHT22;11160;51.576;0.194;2022-07-17T03:23:39;24.80;60.40
21992;DHT22;11160;51.576;0.194;2022-07-17T03:26:06;24.80;60.60
21992;DHT22;11160;51.576;0.194;2022-07-17T03:28:34;24.70;60.50
21992;DHT22;11160;51.576;0.194;2022-07-17T03:31:01;24.80;60.50
21992;DHT22;11160;51.576;0.194;2022-07-17T03:33:29;24.70;60.50
21992;DHT22;11160;51.576;0.194;2022-07-17T03:35:56;24.70;60.50
21992;DHT22;11160;51.576;0.194;2022-07-17T03:38:23;24.70;60.60
21992;DHT22;11160;51.576;0.194;2022-07-17T03:40:50;24.70;60.80
21992;DHT22;11160;51.576;0.194;2022-07-17T03:43:18;24.60;60.80
21992;DHT22;11160;51.576;0.194;2022-07-17T03:45:45;24.60;60.70
21992;DHT22;11160;51.576;0.194;2022-07-17T03:48:13;24.60;60.70
21992;DHT22;11160;51.576;0.194;2022-07-17T03:50:40;24.60;60.70
21992;DHT22;11160;51.576;0.194;2022-07-17T03:53:07;24.60;60.90
21992;DHT22;11160;51.576;0.194;2022-07-17T03:55:34;24.60;61.00
21992;DHT22;11160;51.576;0.194;2022-07-17T03:58:01;24.60;60.90
21992;DHT22;11160;51.576;0.194;2022-07-17T04:00:29;24.60;61.10
21992;DHT22;11160;51.576;0.194;2022-07-17T04:02:56;24.50;61.20
21992;DHT22;11160;51.576;0.194;2022-07-17T04:05:23;24.50;61.10
21992;DHT22;11160;51.576;0.194;2022-07-17T04:07:50;24.50;61.20
21992;DHT22;11160;51.576;0.194;2022-07-17T04:10:18;24.40;61.30
21992;DHT22;11160;51.576;0.194;2022-07-17T04:12:45;24.40;62.10
21992;DHT22;11160;51.576;0.194;2022-07-17T04:15:12;24.50;61.30
21992;DHT22;11160;51.576;0.194;2022-07-17T04:17:39;24.40;61.50
21992;DHT22;11160;51.576;0.194;2022-07-17T04:20:07;24.40;61.50
21992;DHT22;11160;51.576;0.194;2022-07-17T04:22:35;24.40;61.60
21992;DHT22;11160;51.576;0.194;2022-07-17T04:25:02;24.40;61.50
21992;DHT22;11160;51.576;0.194;2022-07-17T04:27:29;24.40;61.60
21992;DHT22;11160;51.576;0.194;2022-07-17T04:29:56;24.40;61.60
21992;DHT22;11160;51.576;0.194;2022-07-17T04:32:23;24.40;61.80
21992;DHT22;11160;51.576;0.194;2022-07-17T04:34:50;24.40;61.80
21992;DHT22;11160;51.576;0.194;2022-07-17T04:37:17;24.30;61.90
21992;DHT22;11160;51.576;0.194;2022-07-17T04:39:44;24.30;61.90
21992;DHT22;11160;51.576;0.194;2022-07-17T04:42:11;24.30;61.90
21992;DHT22;11160;51.576;0.194;2022-07-17T04:44:39;24.30;61.90
21992;DHT22;11160;51.576;0.194;2022-07-17T04:47:06;24.30;61.80
21992;DHT22;11160;51.576;0.194;2022-07-17T04:49:33;24.30;61.90
21992;DHT22;11160;51.576;0.194;2022-07-17T04:52:00;24.30;62.00
21992;DHT22;11160;51.576;0.194;2022-07-17T04:54:27;24.30;62.10
21992;DHT22;11160;51.576;0.194;2022-07-17T04:56:54;24.30;62.00
21992;DHT22;11160;51.576;0.194;2022-07-17T04:59:22;24.30;62.00
21992;DHT22;11160;51.576;0.194;2022-07-17T05:01:49;24.30;62.20
21992;DHT22;11160;51.576;0.194;2022-07-17T05:04:16;24.30;62.80
21992;DHT22;11160;51.576;0.194;2022-07-17T05:06:43;24.20;62.90
21992;DHT22;11160;51.576;0.194;2022-07-17T05:09:10;24.30;62.00
21992;DHT22;11160;51.576;0.194;2022-07-17T05:11:37;24.20;61.90
21992;DHT22;11160;51.576;0.194;2022-07-17T05:14:05;24.30;61.90
21992;DHT22;11160;51.576;0.194;2022-07-17T05:16:32;24.30;61.90
21992;DHT22;11160;51.576;0.194;2022-07-17T05:18:59;24.20;61.90
21992;DHT22;11160;51.576;0.194;2022-07-17T05:21:28;24.20;62.20
21992;DHT22;11160;51.576;0.194;2022-07-17T05:23:55;24.20;62.20
21992;DHT22;11160;51.576;0.194;2022-07-17T05:26:22;24.20;62.20
21992;DHT22;11160;51.576;0.194;2022-07-17T05:28:50;24.20;62.20
21992;DHT22;11160;51.576;0.194;2022-07-17T05:31:18;24.20;62.30
21992;DHT22;11160;51.576;0.194;2022-07-17T05:33:45;24.20;62.30
21992;DHT22;11160;51.576;0.194;2022-07-17T05:36:12;24.20;62.30
21992;DHT22;11160;51.576;0.194;2022-07-17T05:38:39;24.20;62.40
21992;DHT22;11160;51.576;0.194;2022-07-17T05:41:06;24.20;62.40
21992;DHT22;11160;51.576;0.194;2022-07-17T05:43:33;24.20;62.50
21992;DHT22;11160;51.576;0.194;2022-07-17T05:46:00;24.20;63.40
21992;DHT22;11160;51.576;0.194;2022-07-17T05:48:30;24.20;62.50
21992;DHT22;11160;51.576;0.194;2022-07-17T05:50:58;24.20;62.50
21992;DHT22;11160;51.576;0.194;2022-07-17T05:53:25;24.20;62.40
21992;DHT22;11160;51.576;0.194;2022-07-17T05:55:52;24.10;62.40
21992;DHT22;11160;51.576;0.194;2022-07-17T05:58:20;24.10;62.60
21992;DHT22;11160;51.576;0.194;2022-07-17T06:00:47;24.20;62.70
21992;DHT22;11160;51.576;0.194;2022-07-17T06:03:16;24.20;62.70
21992;DHT22;11160;51.576;0.194;2022-07-17T06:05:43;24.20;62.70
21992;DHT22;11160;51.576;0.194;2022-07-17T06:08:11;24.20;62.60
21992;DHT22;11160;51.576;0.194;2022-07-17T06:10:38;24.20;62.60
21992;DHT22;11160;51.576;0.194;2022-07-17T06:13:05;24.20;62.60
21992;DHT22;11160;51.576;0.194;2022-07-17T06:15:33;24.20;62.70
21992;DHT22;11160;51.576;0.194;2022-07-17T06:18:03;24.20;62.70
21992;DHT22;11160;51.576;0.194;2022-07-17T06:20:31;24.30;62.70
21992;DHT22;11160;51.576;0.194;2022-07-17T06:22:58;24.30;62.70
21992;DHT22;11160;51.576;0.194;2022-07-17T06:25:25;24.30;62.90
21992;DHT22;11160;51.576;0.194;2022-07-17T06:27:52;24.30;63.00
21992;DHT22;11160;51.576;0.194;2022-07-17T06:30:19;24.30;63.00
21992;DHT22;11160;51.576;0.194;2022-07-17T06:32:46;24.30;63.00
21992;DHT22;11160;51.576;0.194;2022-07-17T06:35:13;24.40;63.10
21992;DHT22;11160;51.576;0.194;2022-07-17T06:37:40;24.40;63.10
21992;DHT22;11160;51.576;0.194;2022-07-17T06:40:08;24.40;63.20
21992;DHT22;11160;51.576;0.194;2022-07-17T06:42:35;24.40;63.20
21992;DHT22;11160;51.576;0.194;2022-07-17T06:45:02;24.50;63.20
21992;DHT22;11160;51.576;0.194;2022-07-17T06:47:29;24.50;63.20
21992;DHT22;11160;51.576;0.194;2022-07-17T06:49:58;24.60;63.20
21992;DHT22;11160;51.576;0.194;2022-07-17T06:52:25;24.60;63.20
21992;DHT22;11160;51.576;0.194;2022-07-17T06:54:56;24.70;63.20
21992;DHT22;11160;51.576;0.194;2022-07-17T06:57:23;24.80;63.20
21992;DHT22;11160;51.576;0.194;2022-07-17T06:59:51;24.80;63.00
21992;DHT22;11160;51.576;0.194;2022-07-17T07:02:18;24.90;63.10
21992;DHT22;11160;51.576;0.194;2022-07-17T07:04:45;25.00;63.20
21992;DHT22;11160;51.576;0.194;2022-07-17T07:07:12;25.00;63.30
21992;DHT22;11160;51.576;0.194;2022-07-17T07:09:39;25.10;63.20
21992;DHT22;11160;51.576;0.194;2022-07-17T07:12:06;25.20;63.50
21992;DHT22;11160;51.576;0.194;2022-07-17T07:14:34;25.30;63.60
21992;DHT22;11160;51.576;0.194;2022-07-17T07:17:01;25.40;63.90
21992;DHT22;11160;51.576;0.194;2022-07-17T07:19:28;25.40;64.00
21992;DHT22;11160;51.576;0.194;2022-07-17T07:21:55;25.40;64.10
21992;DHT22;11160;51.576;0.194;2022-07-17T07:24:24;25.50;64.30
21992;DHT22;11160;51.576;0.194;2022-07-17T07:26:51;25.50;64.50
21992;DHT22;11160;51.576;0.194;2022-07-17T07:29:18;25.60;64.70
21992;DHT22;11160;51.576;0.194;2022-07-17T07:31:45;25.60;64.80
21992;DHT22;11160;51.576;0.194;2022-07-17T07:34:14;25.70;64.90
21992;DHT22;11160;51.576;0.194;2022-07-17T07:36:41;25.80;65.10
21992;DHT22;11160;51.576;0.194;2022-07-17T07:39:09;25.80;65.20
21992;DHT22;11160;51.576;0.194;2022-07-17T07:41:36;25.90;65.40
21992;DHT22;11160;51.576;0.194;2022-07-17T07:44:03;25.90;65.70
21992;DHT22;11160;51.576;0.194;2022-07-17T07:46:30;25.90;65.80
21992;DHT22;11160;51.576;0.194;2022-07-17T07:48:58;26.00;65.90
21992;DHT22;11160;51.576;0.194;2022-07-17T07:51:25;26.10;65.90
21992;DHT22;11160;51.576;0.194;2022-07-17T07:54:12;26.10;66.10
21992;DHT22;11160;51.576;0.194;2022-07-17T07:56:39;26.20;66.20
21992;DHT22;11160;51.576;0.194;2022-07-17T07:59:06;26.30;66.50
21992;DHT22;11160;51.576;0.194;2022-07-17T08:01:33;26.30;66.50
21992;DHT22;11160;51.576;0.194;2022-07-17T08:04:01;26.40;66.80
21992;DHT22;11160;51.576;0.194;2022-07-17T08:06:28;26.40;66.80
21992;DHT22;11160;51.576;0.194;2022-07-17T08:08:56;26.50;67.10
21992;DHT22;11160;51.576;0.194;2022-07-17T08:11:23;26.50;67.10
21992;DHT22;11160;51.576;0.194;2022-07-17T08:13:52;26.60;67.10
21992;DHT22;11160;51.576;0.194;2022-07-17T08:16:19;26.60;67.20
21992;DHT22;11160;51.576;0.194;2022-07-17T08:18:48;26.70;67.30
21992;DHT22;11160;51.576;0.194;2022-07-17T08:21:15;26.70;67.50
21992;DHT22;11160;51.576;0.194;2022-07-17T08:23:42;26.70;67.30
21992;DHT22;11160;51.576;0.194;2022-07-17T08:26:09;26.80;67.30
21992;DHT22;11160;51.576;0.194;2022-07-17T08:28:37;26.80;67.40
21992;DHT22;11160;51.576;0.194;2022-07-17T08:31:04;26.90;67.50
21992;DHT22;11160;51.576;0.194;2022-07-17T08:33:32;26.90;67.70
21992;DHT22;11160;51.576;0.194;2022-07-17T08:35:59;27.00;67.80
21992;DHT22;11160;51.576;0.194;2022-07-17T08:38:26;27.00;67.80
21992;DHT22;11160;51.576;0.194;2022-07-17T08:40:53;27.00;67.90
21992;DHT22;11160;51.576;0.194;2022-07-17T08:43:21;27.00;67.90
21992;DHT22;11160;51.576;0.194;2022-07-17T08:45:49;27.10;68.00
21992;DHT22;11160;51.576;0.194;2022-07-17T08:48:18;27.20;68.00
21992;DHT22;11160;51.576;0.194;2022-07-17T08:50:46;27.20;68.00
21992;DHT22;11160;51.576;0.194;2022-07-17T08:53:14;27.30;68.10
21992;DHT22;11160;51.576;0.194;2022-07-17T08:55:41;27.40;68.20
21992;DHT22;11160;51.576;0.194;2022-07-17T08:58:14;27.40;68.20
21992;DHT22;11160;51.576;0.194;2022-07-17T09:00:42;27.50;68.40
21992;DHT22;11160;51.576;0.194;2022-07-17T09:03:09;27.60;68.30
21992;DHT22;11160;51.576;0.194;2022-07-17T09:05:39;27.60;69.00
21992;DHT22;11160;51.576;0.194;2022-07-17T09:08:08;27.70;69.00
21992;DHT22;11160;51.576;0.194;2022-07-17T09:10:41;27.80;68.30
21992;DHT22;11160;51.576;0.194;2022-07-17T09:15:43;27.90;68.60
21992;DHT22;11160;51.576;0.194;2022-07-17T09:18:12;28.00;68.50
21992;DHT22;11160;51.576;0.194;2022-07-17T09:20:51;28.10;68.70
21992;DHT22;11160;51.576;0.194;2022-07-17T09:23:21;28.20;68.90
21992;DHT22;11160;51.576;0.194;2022-07-17T09:25:52;28.30;68.80
21992;DHT22;11160;51.576;0.194;2022-07-17T09:28:22;28.30;68.80
21992;DHT22;11160;51.576;0.194;2022-07-17T09:30:52;28.40;69.00
21992;DHT22;11160;51.576;0.194;2022-07-17T09:33:26;28.50;69.00
21992;DHT22;11160;51.576;0.194;2022-07-17T09:36:05;28.60;69.00
21992;DHT22;11160;51.576;0.194;2022-07-17T09:38:38;28.70;69.10
21992;DHT22;11160;51.576;0.194;2022-07-17T09:41:15;28.70;69.20
21992;DHT22;11160;51.576;0.194;2022-07-17T09:46:36;28.90;69.40
21992;DHT22;11160;51.576;0.194;2022-07-17T09:49:07;29.00;69.40
21992;DHT22;11160;51.576;0.194;2022-07-17T09:51:38;29.10;69.60
21992;DHT22;11160;51.576;0.194;2022-07-17T09:54:08;29.10;69.40
21992;DHT22;11160;51.576;0.194;2022-07-17T09:56:37;29.20;69.60
21992;DHT22;11160;51.576;0.194;2022-07-17T09:59:11;29.20;69.80
21992;DHT22;11160;51.576;0.194;2022-07-17T10:01:41;29.30;70.00
21992;DHT22;11160;51.576;0.194;2022-07-17T10:04:11;29.30;70.00
21992;DHT22;11160;51.576;0.194;2022-07-17T10:06:38;29.40;70.20
21992;DHT22;11160;51.576;0.194;2022-07-17T10:09:06;29.50;70.10
21992;DHT22;11160;51.576;0.194;2022-07-17T10:11:36;29.50;70.10
21992;DHT22;11160;51.576;0.194;2022-07-17T10:14:13;29.60;70.10
21992;DHT22;11160;51.576;0.194;2022-07-17T10:16:41;29.70;70.00
21992;DHT22;11160;51.576;0.194;2022-07-17T10:19:31;29.70;70.10
21992;DHT22;11160;51.576;0.194;2022-07-17T10:22:01;29.80;60.90
21992;DHT22;11160;51.576;0.194;2022-07-17T10:24:31;29.70;60.90
21992;DHT22;11160;51.576;0.194;2022-07-17T10:27:00;29.70;61.50
21992;DHT22;11160;51.576;0.194;2022-07-17T10:29:34;29.80;64.20
21992;DHT22;11160;51.576;0.194;2022-07-17T10:32:15;29.80;65.80
21992;DHT22;11160;51.576;0.194;2022-07-17T10:35:28;29.90;65.80
21992;DHT22;11160;51.576;0.194;2022-07-17T10:42:46;30.20;66.10
21992;DHT22;11160;51.576;0.194;2022-07-17T10:45:18;30.20;66.20
21992;DHT22;11160;51.576;0.194;2022-07-17T10:47:57;30.30;66.30
21992;DHT22;11160;51.576;0.194;2022-07-17T10:50:31;30.40;64.90
21992;DHT22;11160;51.576;0.194;2022-07-17T10:55:41;30.50;66.30
21992;DHT22;11160;51.576;0.194;2022-07-17T10:58:28;30.70;66.40
21992;DHT22;11160;51.576;0.194;2022-07-17T11:01:02;30.70;66.00
21992;DHT22;11160;51.576;0.194;2022-07-17T11:03:31;30.70;66.60
21992;DHT22;11160;51.576;0.194;2022-07-17T11:09:03;30.90;66.70
21992;DHT22;11160;51.576;0.194;2022-07-17T11:11:37;31.00;66.90
21992;DHT22;11160;51.576;0.194;2022-07-17T11:14:08;31.10;67.00
21992;DHT22;11160;51.576;0.194;2022-07-17T11:16:36;31.20;67.00
21992;DHT22;11160;51.576;0.194;2022-07-17T11:19:05;31.30;67.10
21992;DHT22;11160;51.576;0.194;2022-07-17T11:21:33;31.40;66.90
21992;DHT22;11160;51.576;0.194;2022-07-17T11:24:02;31.60;66.80
21992;DHT22;11160;51.576;0.194;2022-07-17T11:26:30;31.70;66.40
21992;DHT22;11160;51.576;0.194;2022-07-17T11:28:58;31.90;66.20
21992;DHT22;11160;51.576;0.194;2022-07-17T11:31:28;32.00;65.90
21992;DHT22;11160;51.576;0.194;2022-07-17T11:34:01;32.20;65.80
21992;DHT22;11160;51.576;0.194;2022-07-17T11:36:31;32.40;65.30
21992;DHT22;11160;51.576;0.194;2022-07-17T11:39:02;32.50;65.20
21992;DHT22;11160;51.576;0.194;2022-07-17T11:41:32;32.60;64.80
21992;DHT22;11160;51.576;0.194;2022-07-17T11:43:59;32.90;64.60
21992;DHT22;11160;51.576;0.194;2022-07-17T11:46:30;33.10;64.50
21992;DHT22;11160;51.576;0.194;2022-07-17T11:49:00;33.10;64.10
21992;DHT22;11160;51.576;0.194;2022-07-17T11:54:07;33.30;63.80
21992;DHT22;11160;51.576;0.194;2022-07-17T11:56:35;33.50;63.50
21992;DHT22;11160;51.576;0.194;2022-07-17T11:59:03;33.60;63.00
21992;DHT22;11160;51.576;0.194;2022-07-17T12:01:38;33.80;62.50
21992;DHT22;11160;51.576;0.194;2022-07-17T12:04:14;34.00;62.10
21992;DHT22;11160;51.576;0.194;2022-07-17T12:06:44;34.20;61.50
21992;DHT22;11160;51.576;0.194;2022-07-17T12:09:12;34.30;61.20
21992;DHT22;11160;51.576;0.194;2022-07-17T12:11:46;34.50;60.80
21992;DHT22;11160;51.576;0.194;2022-07-17T12:14:14;34.90;60.40
21992;DHT22;11160;51.576;0.194;2022-07-17T12:16:41;35.40;59.70
21992;DHT22;11160;51.576;0.194;2022-07-17T12:19:10;35.90;58.40
21992;DHT22;11160;51.576;0.194;2022-07-17T12:21:52;36.50;57.00
21992;DHT22;11160;51.576;0.194;2022-07-17T12:24:26;36.90;54.20
21992;DHT22;11160;51.576;0.194;2022-07-17T12:27:05;37.10;54.60
21992;DHT22;11160;51.576;0.194;2022-07-17T12:29:33;37.10;53.00
21992;DHT22;11160;51.576;0.194;2022-07-17T12:32:05;36.90;53.20
21992;DHT22;11160;51.576;0.194;2022-07-17T12:34:34;36.70;52.30
21992;DHT22;11160;51.576;0.194;2022-07-17T12:37:02;36.60;51.70
21992;DHT22;11160;51.576;0.194;2022-07-17T12:39:29;36.50;51.50
21992;DHT22;11160;51.576;0.194;2022-07-17T12:41:57;36.50;51.20
21992;DHT22;11160;51.576;0.194;2022-07-17T12:44:24;36.70;50.80
21992;DHT22;11160;51.576;0.194;2022-07-17T12:46:52;37.00;50.40
21992;DHT22;11160;51.576;0.194;2022-07-17T12:49:19;37.30;50.00
21992;DHT22;11160;51.576;0.194;2022-07-17T12:51:47;37.60;49.20
21992;DHT22;11160;51.576;0.194;2022-07-17T12:54:14;37.80;49.00
21992;DHT22;11160;51.576;0.194;2022-07-17T12:56:42;37.90;48.30
21992;DHT22;11160;51.576;0.194;2022-07-17T12:59:09;38.00;48.10
21992;DHT22;11160;51.576;0.194;2022-07-17T13:01:36;38.00;47.70
21992;DHT22;11160;51.576;0.194;2022-07-17T13:04:03;38.00;47.80
21992;DHT22;11160;51.576;0.194;2022-07-17T13:06:31;38.00;47.70
21992;DHT22;11160;51.576;0.194;2022-07-17T13:09:01;38.00;47.50
21992;DHT22;11160;51.576;0.194;2022-07-17T13:11:28;38.00;47.40
21992;DHT22;11160;51.576;0.194;2022-07-17T13:13:55;37.90;46.90
21992;DHT22;11160;51.576;0.194;2022-07-17T13:16:23;38.00;48.00
21992;DHT22;11160;51.576;0.194;2022-07-17T13:18:53;37.90;47.20
21992;DHT22;11160;51.576;0.194;2022-07-17T13:21:20;38.00;46.90
21992;DHT22;11160;51.576;0.194;2022-07-17T13:23:47;38.00;47.10
21992;DHT22;11160;51.576;0.194;2022-07-17T13:26:14;38.00;47.10
21992;DHT22;11160;51.576;0.194;2022-07-17T13:28:45;37.80;47.00
21992;DHT22;11160;51.576;0.194;2022-07-17T13:31:13;37.70;47.30
21992;DHT22;11160;51.576;0.194;2022-07-17T13:33:40;37.70;47.30
21992;DHT22;11160;51.576;0.194;2022-07-17T13:36:07;37.60;47.30
21992;DHT22;11160;51.576;0.194;2022-07-17T13:38:35;37.40;47.50
21992;DHT22;11160;51.576;0.194;2022-07-17T13:41:02;37.20;47.80
21992;DHT22;11160;51.576;0.194;2022-07-17T13:43:29;37.10;47.70
21992;DHT22;11160;51.576;0.194;2022-07-17T13:45:56;37.10;47.80
21992;DHT22;11160;51.576;0.194;2022-07-17T13:48:24;37.00;47.90
21992;DHT22;11160;51.576;0.194;2022-07-17T13:50:51;36.90;48.60
21992;DHT22;11160;51.576;0.194;2022-07-17T13:53:19;36.90;48.70
21992;DHT22;11160;51.576;0.194;2022-07-17T13:55:46;36.90;48.70
21992;DHT22;11160;51.576;0.194;2022-07-17T13:58:19;36.90;48.70
21992;DHT22;11160;51.576;0.194;2022-07-17T14:00:46;36.80;48.70
21992;DHT22;11160;51.576;0.194;2022-07-17T14:03:13;36.80;48.50
21992;DHT22;11160;51.576;0.194;2022-07-17T14:05:41;36.70;48.50
21992;DHT22;11160;51.576;0.194;2022-07-17T14:08:08;36.70;48.60
21992;DHT22;11160;51.576;0.194;2022-07-17T14:10:35;36.70;48.60
21992;DHT22;11160;51.576;0.194;2022-07-17T14:13:02;36.60;48.60
21992;DHT22;11160;51.576;0.194;2022-07-17T14:15:29;36.60;48.70
21992;DHT22;11160;51.576;0.194;2022-07-17T14:17:57;36.60;48.80
21992;DHT22;11160;51.576;0.194;2022-07-17T14:20:24;36.60;48.70
21992;DHT22;11160;51.576;0.194;2022-07-17T14:22:51;36.70;48.70
21992;DHT22;11160;51.576;0.194;2022-07-17T14:25:19;36.70;48.60
21992;DHT22;11160;51.576;0.194;2022-07-17T14:27:47;36.70;48.60
21992;DHT22;11160;51.576;0.194;2022-07-17T14:30:14;36.60;48.50
21992;DHT22;11160;51.576;0.194;2022-07-17T14:32:42;36.60;48.70
21992;DHT22;11160;51.576;0.194;2022-07-17T14:35:09;36.40;45.40
21992;DHT22;11160;51.576;0.194;2022-07-17T14:37:36;36.10;42.50
21992;DHT22;11160;51.576;0.194;2022-07-17T14:40:13;35.70;39.90
21992;DHT22;11160;51.576;0.194;2022-07-17T14:42:40;35.40;38.40
21992;DHT22;11160;51.576;0.194;2022-07-17T14:45:09;35.10;38.20
21992;DHT22;11160;51.576;0.194;2022-07-17T14:47:36;34.80;37.80
21992;DHT22;11160;51.576;0.194;2022-07-17T14:50:04;34.60;37.70
21992;DHT22;11160;51.576;0.194;2022-07-17T14:52:31;34.50;38.30
21992;DHT22;11160;51.576;0.194;2022-07-17T14:54:58;34.40;38.70
21992;DHT22;11160;51.576;0.194;2022-07-17T14:57:25;34.20;38.10
21992;DHT22;11160;51.576;0.194;2022-07-17T14:59:53;34.10;38.10
21992;DHT22;11160;51.576;0.194;2022-07-17T15:02:20;34.00;38.20
21992;DHT22;11160;51.576;0.194;2022-07-17T15:04:48;33.90;38.10
21992;DHT22;11160;51.576;0.194;2022-07-17T15:07:15;33.80;38.10
21992;DHT22;11160;51.576;0.194;2022-07-17T15:09:42;33.70;38.00
21992;DHT22;11160;51.576;0.194;2022-07-17T15:12:10;33.60;37.80
21992;DHT22;11160;51.576;0.194;2022-07-17T15:14:37;33.60;37.80
21992;DHT22;11160;51.576;0.194;2022-07-17T15:17:04;33.50;37.60
21992;DHT22;11160;51.576;0.194;2022-07-17T15:19:31;33.40;37.30
21992;DHT22;11160;51.576;0.194;2022-07-17T15:21:58;33.30;37.40
21992;DHT22;11160;51.576;0.194;2022-07-17T15:24:25;33.30;37.50
21992;DHT22;11160;51.576;0.194;2022-07-17T15:26:52;33.20;37.60
21992;DHT22;11160;51.576;0.194;2022-07-17T15:29:20;33.10;37.60
21992;DHT22;11160;51.576;0.194;2022-07-17T15:31:47;33.10;37.30
21992;DHT22;11160;51.576;0.194;2022-07-17T15:34:14;33.00;37.20
21992;DHT22;11160;51.576;0.194;2022-07-17T15:36:42;33.00;37.60
21992;DHT22;11160;51.576;0.194;2022-07-17T15:39:10;33.00;37.60
21992;DHT22;11160;51.576;0.194;2022-07-17T15:41:37;32.90;37.70
21992;DHT22;11160;51.576;0.194;2022-07-17T15:44:05;32.90;37.70
21992;DHT22;11160;51.576;0.194;2022-07-17T15:46:32;32.80;37.70
21992;DHT22;11160;51.576;0.194;2022-07-17T15:49:00;32.70;37.70
21992;DHT22;11160;51.576;0.194;2022-07-17T15:51:27;32.80;37.90
21992;DHT22;11160;51.576;0.194;2022-07-17T15:53:56;32.70;37.90
21992;DHT22;11160;51.576;0.194;2022-07-17T15:56:24;32.60;38.00